Terminal Aerodrome Forecast
Issued by NWS St Louis, MO

Home | Current Version | Previous Version | Graphics & Text | Print | Product List | Glossary On
Versions: 1 2 3 4 5 6 7 8 9 10 11 12 13 14 15 16 17 18 19 20 21 22 23 24 25 26
502
FTUS43 KLSX 112330
TAFSTL
TAF
KSTL 112330Z 1200/1306 08004KT P6SM OVC080
     FM120500 11004KT 3SM -SN OVC040
     FM120700 VRB03KT 2SM -SN OVC025
     FM121100 00000KT P6SM OVC015
     FM121500 02006KT P6SM OVC025
     FM121900 32012G20KT P6SM BKN040
     FM130000 23010KT P6SM SCT120=

USA.gov is the U.S. government's official web portal to all federal, state and local government web resources and services.